Time;durP1;ratioP1;P1;durP2;ratioP2;P2;SDS_P1;SDS_P2;PMS_P1;PMS_P2;Temp;Humidity;BMP_temperature;BMP_pressure;BME280_temperature;BME280_humidity;BME280_pressure;Samples;Min_cycle;Max_cycle;Signal;HPM_P1;HPM_P2
2022/10/18 00:08:05;;;;;;;12.05;5.55;;;19.10;64.20;;;;;;21089956;28;20098;-58
2022/10/18 00:18:07;;;;;;;10.32;4.45;;;19.10;64.20;;;;;;21088718;28;20117;-58
2022/10/18 00:28:09;;;;;;;14.30;5.38;;;19.00;64.10;;;;;;21088970;28;20055;-60
2022/10/18 00:38:11;;;;;;;12.95;4.55;;;18.80;64.20;;;;;;21086229;28;20044;-59
2022/10/18 00:48:15;;;;;;;15.77;4.90;;;18.60;64.80;;;;;;21085560;28;20098;-60
2022/10/18 00:58:18;;;;;;;13.60;3.97;;;18.40;65.10;;;;;;21067028;28;20119;-59
2022/10/18 01:08:32;;;;;;;16.43;4.47;;;18.30;65.40;;;;;;21084865;28;20059;-60
2022/10/18 01:18:47;;;;;;;15.32;5.13;;;18.20;65.60;;;;;;21084855;28;20044;-60
2022/10/18 01:29:15;;;;;;;16.08;4.45;;;18.10;65.50;;;;;;21084122;28;20056;-59
2022/10/18 01:39:28;;;;;;;9.70;4.22;;;18.10;65.60;;;;;;21064949;28;20075;-60
2022/10/18 01:49:37;;;;;;;17.80;4.55;;;18.00;66.20;;;;;;21080619;28;20056;-59
2022/10/18 01:59:50;;;;;;;16.00;4.63;;;17.90;66.30;;;;;;21080524;28;20079;-59
2022/10/18 02:10:14;;;;;;;10.30;4.40;;;17.90;66.30;;;;;;21080195;28;20063;-59
2022/10/18 02:20:20;;;;;;;14.93;5.28;;;17.80;66.40;;;;;;21078956;28;20052;-59
2022/10/18 02:30:43;;;;;;;9.95;3.85;;;17.70;66.90;;;;;;21079862;28;20097;-60
2022/10/18 02:40:45;;;;;;;15.30;4.18;;;17.80;67.00;;;;;;21078082;28;20051;-59
2022/10/18 02:50:47;;;;;;;18.20;5.18;;;17.70;67.00;;;;;;21078681;28;20099;-61
2022/10/18 03:00:49;;;;;;;17.83;4.80;;;17.70;67.20;;;;;;21059476;28;20055;-58
2022/10/18 03:10:52;;;;;;;12.50;4.30;;;17.80;67.10;;;;;;21075944;28;20131;-58
2022/10/18 03:20:54;;;;;;;18.67;6.60;;;17.90;66.70;;;;;;21093332;28;20135;-59
2022/10/18 03:31:01;;;;;;;16.83;5.28;;;18.10;66.50;;;;;;21092166;28;20052;-59
2022/10/18 03:41:03;;;;;;;16.20;5.57;;;18.20;67.00;;;;;;21092394;28;20078;-59
2022/10/18 03:51:05;;;;;;;15.80;5.68;;;18.20;67.10;;;;;;21091771;28;20057;-59
2022/10/18 04:01:07;;;;;;;12.40;4.07;;;18.20;67.30;;;;;;21090671;28;20479;-59
2022/10/18 04:11:10;;;;;;;15.93;4.72;;;17.90;66.70;;;;;;21089162;28;20084;-59
2022/10/18 04:21:13;;;;;;;16.10;5.47;;;17.60;67.60;;;;;;21088352;28;20044;-58
2022/10/18 04:31:15;;;;;;;10.40;4.60;;;17.30;68.30;;;;;;21069958;28;20135;-59
2022/10/18 04:41:18;;;;;;;12.07;5.10;;;17.30;68.50;;;;;;21087119;28;20052;-60
2022/10/18 04:51:20;;;;;;;16.05;5.75;;;17.30;68.80;;;;;;21086954;28;20056;-59
2022/10/18 05:01:22;;;;;;;12.27;4.88;;;17.20;69.20;;;;;;21085067;28;20044;-60
2022/10/18 05:11:25;;;;;;;13.75;5.38;;;17.30;69.20;;;;;;21084381;28;20048;-59
2022/10/18 05:21:26;;;;;;;15.13;5.07;;;17.20;69.50;;;;;;21083906;28;20515;-59
2022/10/18 05:31:28;;;;;;;15.20;6.30;;;17.20;69.70;;;;;;21082063;28;20083;-60
2022/10/18 05:41:31;;;;;;;16.63;6.03;;;17.20;69.70;;;;;;21082876;28;20055;-61
2022/10/18 05:51:37;;;;;;;14.20;5.68;;;17.20;69.80;;;;;;21081497;28;20048;-58
2022/10/18 06:01:40;;;;;;;14.98;7.13;;;17.10;69.90;;;;;;21080859;28;20040;-59
2022/10/18 06:11:42;;;;;;;19.40;8.40;;;17.00;70.70;;;;;;21080448;28;20456;-59
2022/10/18 06:21:44;;;;;;;17.25;6.35;;;17.00;70.60;;;;;;21061207;28;20051;-59
2022/10/18 06:31:46;;;;;;;22.05;7.25;;;16.90;70.70;;;;;;21079489;28;20052;-61
2022/10/18 06:41:47;;;;;;;21.50;6.82;;;16.80;71.00;;;;;;21089534;28;20075;-60
2022/10/18 06:51:49;;;;;;;21.95;6.70;;;16.90;71.10;;;;;;21096459;28;20105;-59
2022/10/18 07:01:51;;;;;;;19.00;5.93;;;16.90;70.80;;;;;;21095715;28;20044;-60
2022/10/18 07:11:53;;;;;;;19.70;6.97;;;16.90;70.80;;;;;;21075984;28;20182;-59
2022/10/18 07:21:54;;;;;;;19.20;6.15;;;16.90;70.80;;;;;;21093493;28;20055;-60
2022/10/18 07:31:56;;;;;;;27.63;8.50;;;16.90;70.60;;;;;;21093109;28;20090;-60
2022/10/18 07:41:58;;;;;;;32.70;8.43;;;16.90;70.60;;;;;;21092099;28;20055;-61
2022/10/18 07:52:00;;;;;;;22.80;7.82;;;17.10;70.60;;;;;;21090260;28;20088;-60
2022/10/18 08:02:02;;;;;;;36.03;8.25;;;17.30;69.70;;;;;;21091449;28;20147;-59
2022/10/18 08:12:04;;;;;;;28.45;8.30;;;17.60;69.50;;;;;;21083957;28;20087;-61
2022/10/18 08:22:05;;;;;;;23.65;9.68;;;17.80;68.70;;;;;;21089262;28;20072;-59
2022/10/18 08:32:07;;;;;;;21.20;8.48;;;18.20;67.80;;;;;;21087819;28;20083;-59
2022/10/18 08:42:27;;;;;;;18.60;8.43;;;18.60;66.90;;;;;;21101634;28;20047;-60
2022/10/18 08:53:02;;;;;;;20.40;8.60;;;18.90;65.70;;;;;;21171107;28;20487;-59
2022/10/18 09:03:16;;;;;;;24.38;7.32;;;19.50;64.20;;;;;;21150475;28;20047;-59
2022/10/18 09:13:51;;;;;;;19.80;7.50;;;19.80;62.70;;;;;;21169247;28;20141;-59
2022/10/18 09:24:08;;;;;;;16.27;6.43;;;20.10;61.90;;;;;;21167747;28;20048;-58
2022/10/18 09:34:22;;;;;;;22.73;6.65;;;20.40;60.70;;;;;;21166257;28;20058;-59
2022/10/18 09:44:38;;;;;;;16.70;5.47;;;20.80;59.00;;;;;;21165533;28;20051;-60
2022/10/18 09:54:50;;;;;;;21.40;6.05;;;21.20;57.90;;;;;;21165890;28;20052;-60
2022/10/18 10:04:55;;;;;;;21.60;7.45;;;21.30;57.60;;;;;;21166611;28;20079;-58
2022/10/18 10:15:25;;;;;;;27.95;7.22;;;21.50;56.40;;;;;;21146329;28;20052;-61
2022/10/18 10:25:33;;;;;;;18.95;4.93;;;21.80;54.10;;;;;;21159539;28;20165;-61
2022/10/18 10:35:38;;;;;;;20.98;5.10;;;22.00;54.00;;;;;;21163159;28;20122;-61
2022/10/18 10:45:58;;;;;;;24.35;5.68;;;22.30;53.00;;;;;;21161913;28;20160;-61
2022/10/18 10:56:00;;;;;;;20.05;4.72;;;22.70;51.80;;;;;;21163048;28;20058;-60
2022/10/18 11:06:02;;;;;;;17.17;5.35;;;22.80;50.90;;;;;;21162506;28;20051;-58
2022/10/18 11:16:12;;;;;;;22.10;5.78;;;23.10;50.10;;;;;;21160853;28;20123;-61
2022/10/18 11:26:28;;;;;;;19.05;5.00;;;23.20;50.30;;;;;;21149677;28;20134;-58
2022/10/18 11:36:40;;;;;;;24.50;7.32;;;23.60;49.60;;;;;;21176010;28;20055;-59
2022/10/18 11:47:02;;;;;;;23.75;5.30;;;23.70;49.10;;;;;;21156919;28;20083;-60
2022/10/18 11:57:46;;;;;;;23.17;5.68;;;24.10;47.70;;;;;;21156473;28;20051;-62
2022/10/18 12:08:14;;;;;;;15.63;5.22;;;24.30;47.20;;;;;;20750226;28;20053;-63
2022/10/18 12:18:21;;;;;;;15.10;5.53;;;24.60;46.00;;;;;;20749655;28;20081;-60
2022/10/18 12:28:50;;;;;;;22.73;5.90;;;25.00;45.70;;;;;;20748590;28;20098;-58
2022/10/18 12:39:01;;;;;;;22.27;5.10;;;25.40;43.90;;;;;;20869617;28;20051;-60
2022/10/18 12:49:04;;;;;;;24.20;5.55;;;25.60;40.60;;;;;;21171338;28;20055;-59
2022/10/18 12:59:15;;;;;;;18.52;5.95;;;25.90;40.70;;;;;;21153750;28;20048;-59
2022/10/18 13:09:20;;;;;;;15.88;4.85;;;26.10;39.20;;;;;;21169941;28;20130;-59
2022/10/18 13:19:44;;;;;;;17.70;4.53;;;26.10;39.30;;;;;;21168304;28;20122;-59
2022/10/18 13:30:10;;;;;;;23.00;5.30;;;26.20;38.70;;;;;;21167315;28;20434;-60
2022/10/18 13:40:29;;;;;;;16.08;6.22;;;26.40;36.90;;;;;;21166018;28;20043;-60
2022/10/18 13:50:37;;;;;;;23.77;7.07;;;26.50;36.80;;;;;;21164414;28;20059;-59
2022/10/18 14:00:51;;;;;;;19.25;5.07;;;26.80;36.50;;;;;;21165313;28;20063;-60
2022/10/18 14:10:58;;;;;;;17.77;5.40;;;26.70;36.20;;;;;;21164732;28;20048;-59
2022/10/18 14:21:17;;;;;;;19.52;5.15;;;26.80;36.20;;;;;;21164242;28;20044;-60
2022/10/18 14:31:19;;;;;;;20.83;4.88;;;26.70;36.70;;;;;;21162373;28;20059;-59
2022/10/18 14:41:31;;;;;;;11.90;5.10;;;26.90;36.10;;;;;;21160186;28;20465;-62
2022/10/18 14:51:35;;;;;;;18.98;5.82;;;26.90;36.50;;;;;;21147645;28;20179;-59
2022/10/18 15:01:38;;;;;;;20.08;7.75;;;26.90;36.50;;;;;;21167768;28;20049;-57
2022/10/18 15:11:40;;;;;;;18.17;5.22;;;27.10;36.00;;;;;;21175615;28;20464;-61
2022/10/18 15:21:57;;;;;;;18.10;6.75;;;27.20;35.80;;;;;;21173638;28;20073;-62
2022/10/18 15:32:11;;;;;;;22.55;5.22;;;27.20;36.40;;;;;;21172040;28;20066;-59
2022/10/18 15:42:37;;;;;;;19.25;5.90;;;27.10;35.60;;;;;;21168687;28;20112;-59
2022/10/18 15:52:42;;;;;;;19.77;6.07;;;27.00;36.10;;;;;;21071807;28;20084;-58
2022/10/18 16:02:45;;;;;;;13.52;5.20;;;27.00;36.30;;;;;;21109367;28;20040;-62
2022/10/18 16:12:47;;;;;;;24.48;6.68;;;26.90;35.80;;;;;;21165581;28;20056;-65
2022/10/18 16:22:49;;;;;;;17.83;5.50;;;26.90;35.70;;;;;;21146969;28;20449;-65
2022/10/18 16:32:51;;;;;;;20.67;8.90;;;26.70;35.70;;;;;;21165204;28;20411;-71
2022/10/18 16:42:53;;;;;;;23.42;7.85;;;26.60;36.30;;;;;;21163917;28;20131;-65
2022/10/18 16:52:56;;;;;;;18.40;5.82;;;26.40;37.00;;;;;;21162085;28;20051;-67
2022/10/18 17:02:58;;;;;;;29.50;10.32;;;26.30;37.10;;;;;;21160970;28;20404;-68
2022/10/18 17:13:00;;;;;;;;;;;26.00;37.60;;;;;;21162741;28;20052;-61
2022/10/18 17:23:02;;;;;;;26.50;8.33;;;25.80;38.00;;;;;;21083546;28;19928;-62
2022/10/18 17:33:05;;;;;;;18.48;7.80;;;25.60;38.80;;;;;;21077597;28;20067;-64
2022/10/18 17:43:06;;;;;;;;;;;25.30;39.50;;;;;;21136108;28;20052;-65
2022/10/18 17:53:10;;;;;;;23.45;9.35;;;25.10;41.40;;;;;;21145723;28;19927;-62
2022/10/18 18:03:12;;;;;;;28.33;8.88;;;25.10;42.60;;;;;;21156497;28;20075;-66
2022/10/18 18:13:14;;;;;;;25.33;11.87;;;24.90;42.40;;;;;;21165196;28;20044;-61
2022/10/18 18:23:16;;;;;;;26.13;11.47;;;24.80;42.20;;;;;;21165383;28;20043;-63
2022/10/18 18:33:18;;;;;;;26.50;10.30;;;24.70;41.80;;;;;;21165264;28;20051;-61
2022/10/18 18:43:20;;;;;;;29.23;11.60;;;24.60;42.50;;;;;;21162950;28;20047;-60
2022/10/18 18:53:22;;;;;;;29.23;13.33;;;24.40;42.90;;;;;;21161651;28;20475;-60
2022/10/18 19:03:23;;;;;;;26.00;11.77;;;24.20;43.70;;;;;;21162232;28;20043;-63
2022/10/18 19:13:25;;;;;;;27.93;9.73;;;24.10;43.90;;;;;;21163428;28;20055;-60
2022/10/18 19:23:26;;;;;;;22.03;9.23;;;24.00;44.00;;;;;;21163135;28;20097;-62
2022/10/18 19:33:28;;;;;;;27.80;12.30;;;23.80;44.00;;;;;;21161923;28;20058;-61
2022/10/18 19:43:30;;;;;;;25.40;9.27;;;23.80;44.40;;;;;;21161423;28;20606;-62
2022/10/18 19:53:33;;;;;;;29.13;12.27;;;23.70;44.70;;;;;;21175292;28;20055;-62
2022/10/18 20:03:34;;;;;;;33.07;10.73;;;23.50;45.40;;;;;;21174981;28;20428;-62
2022/10/18 20:13:36;;;;;;;37.35;19.42;;;23.30;45.90;;;;;;21174278;28;20051;-60
2022/10/18 20:23:39;;;;;;;;;;;23.20;46.40;;;;;;21173468;28;20048;-62
2022/10/18 20:33:40;;;;;;;37.03;13.15;;;23.10;46.70;;;;;;21173311;28;19973;-61
2022/10/18 20:43:43;;;;;;;26.88;12.93;;;22.70;48.80;;;;;;21171470;28;20054;-62
2022/10/18 20:53:44;;;;;;;30.20;12.40;;;22.70;49.10;;;;;;21171598;28;20047;-61
2022/10/18 21:03:48;;;;;;;29.90;10.83;;;22.50;49.80;;;;;;21168637;28;20044;-60
2022/10/18 21:13:56;;;;;;;27.30;8.32;;;22.30;50.30;;;;;;21169400;28;20051;-61
2022/10/18 21:24:01;;;;;;;21.95;7.55;;;22.10;50.70;;;;;;21167732;28;20054;-60
2022/10/18 21:34:06;;;;;;;21.92;6.15;;;21.90;51.70;;;;;;21168375;28;20419;-62
2022/10/18 21:44:08;;;;;;;25.35;7.03;;;21.60;52.60;;;;;;21166987;28;20048;-61
2022/10/18 21:54:13;;;;;;;19.20;5.68;;;21.40;53.20;;;;;;21167300;28;20055;-61
2022/10/18 22:04:20;;;;;;;23.05;6.20;;;21.20;54.00;;;;;;21166950;28;20475;-61
2022/10/18 22:14:22;;;;;;;17.77;6.82;;;21.10;54.70;;;;;;21165496;28;20052;-61
2022/10/18 22:24:24;;;;;;;23.90;7.20;;;20.90;55.10;;;;;;21164699;28;20403;-61
2022/10/18 22:34:26;;;;;;;20.57;7.43;;;20.70;55.60;;;;;;21164318;28;20098;-62
2022/10/18 22:44:28;;;;;;;22.15;6.25;;;20.70;56.00;;;;;;21163583;28;20521;-61
2022/10/18 22:54:31;;;;;;;18.85;6.60;;;20.50;56.60;;;;;;21163668;28;20059;-60
2022/10/18 23:04:33;;;;;;;20.33;6.20;;;20.40;57.10;;;;;;21162701;28;20083;-61
2022/10/18 23:14:34;;;;;;;24.08;7.15;;;20.30;57.60;;;;;;21162404;28;20047;-63
2022/10/18 23:24:36;;;;;;;21.23;7.53;;;20.20;58.30;;;;;;21173326;28;20127;-61
2022/10/18 23:34:38;;;;;;;22.95;7.63;;;20.10;58.60;;;;;;21177955;28;20052;-62
2022/10/18 23:44:39;;;;;;;25.90;7.40;;;20.00;58.90;;;;;;21177182;28;20156;-61
2022/10/18 23:54:42;;;;;;;23.35;6.15;;;19.90;59.10;;;;;;21175888;28;20055;-60
